sensor_id;sensor_type;location;lat;lon;timestamp;temperature;humidity
59301;DHT22;45073;52.740;6.784;2023-07-02T00:00:07;16.50;99.90
59301;DHT22;45073;52.740;6.784;2023-07-02T00:02:34;16.50;99.90
59301;DHT22;45073;52.740;6.784;2023-07-02T00:04:59;16.50;99.90
59301;DHT22;45073;52.740;6.784;2023-07-02T00:07:25;16.50;99.90
59301;DHT22;45073;52.740;6.784;2023-07-02T00:09:54;16.40;99.90
59301;DHT22;45073;52.740;6.784;2023-07-02T00:12:19;16.30;99.90
59301;DHT22;45073;52.740;6.784;2023-07-02T00:14:45;16.30;99.90
59301;DHT22;45073;52.740;6.784;2023-07-02T00:17:10;16.30;99.90
59301;DHT22;45073;52.740;6.784;2023-07-02T00:19:38;16.30;99.90
59301;DHT22;45073;52.740;6.784;2023-07-02T00:22:07;16.30;99.90
59301;DHT22;45073;52.740;6.784;2023-07-02T00:24:33;16.30;99.90
59301;DHT22;45073;52.740;6.784;2023-07-02T00:26:59;16.20;99.90
59301;DHT22;45073;52.740;6.784;2023-07-02T00:29:24;16.30;99.90
59301;DHT22;45073;52.740;6.784;2023-07-02T00:31:50;16.30;99.90
59301;DHT22;45073;52.740;6.784;2023-07-02T00:34:15;16.20;99.90
59301;DHT22;45073;52.740;6.784;2023-07-02T00:36:41;16.20;99.90
59301;DHT22;45073;52.740;6.784;2023-07-02T00:39:07;16.10;99.90
59301;DHT22;45073;52.740;6.784;2023-07-02T00:41:32;16.10;99.90
59301;DHT22;45073;52.740;6.784;2023-07-02T00:43:58;16.10;99.90
59301;DHT22;45073;52.740;6.784;2023-07-02T00:46:24;16.10;99.90
59301;DHT22;45073;52.740;6.784;2023-07-02T00:48:54;16.00;99.90
59301;DHT22;45073;52.740;6.784;2023-07-02T00:51:25;16.00;99.90
59301;DHT22;45073;52.740;6.784;2023-07-02T00:53:52;15.90;99.90
59301;DHT22;45073;52.740;6.784;2023-07-02T00:56:19;15.90;99.90
59301;DHT22;45073;52.740;6.784;2023-07-02T00:58:46;15.90;99.90
59301;DHT22;45073;52.740;6.784;2023-07-02T01:01:24;15.90;99.90
59301;DHT22;45073;52.740;6.784;2023-07-02T01:04:01;15.80;99.90
59301;DHT22;45073;52.740;6.784;2023-07-02T01:06:34;15.90;99.90
59301;DHT22;45073;52.740;6.784;2023-07-02T01:09:05;15.80;99.90
59301;DHT22;45073;52.740;6.784;2023-07-02T01:11:43;15.80;99.90
59301;DHT22;45073;52.740;6.784;2023-07-02T01:14:25;15.80;99.90
59301;DHT22;45073;52.740;6.784;2023-07-02T01:16:53;15.80;99.90
59301;DHT22;45073;52.740;6.784;2023-07-02T01:21:51;15.80;99.90
59301;DHT22;45073;52.740;6.784;2023-07-02T01:24:17;15.80;99.90
59301;DHT22;45073;52.740;6.784;2023-07-02T01:26:44;15.80;99.90
59301;DHT22;45073;52.740;6.784;2023-07-02T01:29:18;15.80;99.90
59301;DHT22;45073;52.740;6.784;2023-07-02T01:31:44;15.80;99.90
59301;DHT22;45073;52.740;6.784;2023-07-02T01:34:10;15.80;99.90
59301;DHT22;45073;52.740;6.784;2023-07-02T01:36:36;15.70;99.90
59301;DHT22;45073;52.740;6.784;2023-07-02T01:39:03;15.70;99.90
59301;DHT22;45073;52.740;6.784;2023-07-02T01:41:28;15.70;99.90
59301;DHT22;45073;52.740;6.784;2023-07-02T01:43:54;15.60;99.90
59301;DHT22;45073;52.740;6.784;2023-07-02T01:46:20;15.50;99.90
59301;DHT22;45073;52.740;6.784;2023-07-02T01:48:46;15.50;99.90
59301;DHT22;45073;52.740;6.784;2023-07-02T01:51:11;15.50;99.90
59301;DHT22;45073;52.740;6.784;2023-07-02T01:53:37;15.50;99.90
59301;DHT22;45073;52.740;6.784;2023-07-02T01:56:02;15.40;99.90
59301;DHT22;45073;52.740;6.784;2023-07-02T01:58:28;15.30;99.90
59301;DHT22;45073;52.740;6.784;2023-07-02T02:00:54;15.30;99.90
59301;DHT22;45073;52.740;6.784;2023-07-02T02:03:21;15.20;99.90
59301;DHT22;45073;52.740;6.784;2023-07-02T02:05:47;15.20;99.90
59301;DHT22;45073;52.740;6.784;2023-07-02T02:08:12;15.10;99.90
59301;DHT22;45073;52.740;6.784;2023-07-02T02:10:38;15.10;99.90
59301;DHT22;45073;52.740;6.784;2023-07-02T02:13:03;15.10;99.90
59301;DHT22;45073;52.740;6.784;2023-07-02T02:15:29;15.00;99.90
59301;DHT22;45073;52.740;6.784;2023-07-02T02:17:54;14.90;99.90
59301;DHT22;45073;52.740;6.784;2023-07-02T02:20:20;15.00;99.90
59301;DHT22;45073;52.740;6.784;2023-07-02T02:22:45;14.90;99.90
59301;DHT22;45073;52.740;6.784;2023-07-02T02:25:11;14.80;99.90
59301;DHT22;45073;52.740;6.784;2023-07-02T02:27:37;14.80;99.90
59301;DHT22;45073;52.740;6.784;2023-07-02T02:30:03;14.70;99.90
59301;DHT22;45073;52.740;6.784;2023-07-02T02:32:29;14.70;99.90
59301;DHT22;45073;52.740;6.784;2023-07-02T02:34:54;14.60;99.90
59301;DHT22;45073;52.740;6.784;2023-07-02T02:37:20;14.50;99.90
59301;DHT22;45073;52.740;6.784;2023-07-02T02:39:47;14.50;99.90
59301;DHT22;45073;52.740;6.784;2023-07-02T02:42:13;14.40;99.90
59301;DHT22;45073;52.740;6.784;2023-07-02T02:44:38;14.30;99.90
59301;DHT22;45073;52.740;6.784;2023-07-02T02:47:04;14.30;99.90
59301;DHT22;45073;52.740;6.784;2023-07-02T02:49:31;14.20;99.90
59301;DHT22;45073;52.740;6.784;2023-07-02T02:51:57;14.20;99.90
59301;DHT22;45073;52.740;6.784;2023-07-02T02:54:22;14.20;99.90
59301;DHT22;45073;52.740;6.784;2023-07-02T02:56:48;14.10;99.90
59301;DHT22;45073;52.740;6.784;2023-07-02T02:59:13;14.10;99.90
59301;DHT22;45073;52.740;6.784;2023-07-02T03:01:39;14.10;99.90
59301;DHT22;45073;52.740;6.784;2023-07-02T03:04:04;14.00;99.90
59301;DHT22;45073;52.740;6.784;2023-07-02T03:06:33;13.90;99.90
59301;DHT22;45073;52.740;6.784;2023-07-02T03:08:59;13.90;99.90
59301;DHT22;45073;52.740;6.784;2023-07-02T03:11:24;13.80;99.90
59301;DHT22;45073;52.740;6.784;2023-07-02T03:13:50;13.80;99.90
59301;DHT22;45073;52.740;6.784;2023-07-02T03:16:16;13.80;99.90
59301;DHT22;45073;52.740;6.784;2023-07-02T03:18:41;13.80;99.90
59301;DHT22;45073;52.740;6.784;2023-07-02T03:21:07;13.80;99.90
59301;DHT22;45073;52.740;6.784;2023-07-02T03:23:32;13.80;99.90
59301;DHT22;45073;52.740;6.784;2023-07-02T03:25:58;13.80;99.90
59301;DHT22;45073;52.740;6.784;2023-07-02T03:28:24;13.70;99.90
59301;DHT22;45073;52.740;6.784;2023-07-02T03:30:49;13.70;99.90
59301;DHT22;45073;52.740;6.784;2023-07-02T03:33:15;13.70;99.90
59301;DHT22;45073;52.740;6.784;2023-07-02T03:35:41;13.60;99.90
59301;DHT22;45073;52.740;6.784;2023-07-02T03:38:06;13.70;99.90
59301;DHT22;45073;52.740;6.784;2023-07-02T03:40:32;13.70;99.90
59301;DHT22;45073;52.740;6.784;2023-07-02T03:42:58;13.60;99.90
59301;DHT22;45073;52.740;6.784;2023-07-02T03:45:23;13.50;99.90
59301;DHT22;45073;52.740;6.784;2023-07-02T03:47:49;13.50;99.90
59301;DHT22;45073;52.740;6.784;2023-07-02T03:50:15;13.50;99.90
59301;DHT22;45073;52.740;6.784;2023-07-02T03:52:40;13.50;99.90
59301;DHT22;45073;52.740;6.784;2023-07-02T03:55:06;13.40;99.90
59301;DHT22;45073;52.740;6.784;2023-07-02T03:57:32;13.50;99.90
59301;DHT22;45073;52.740;6.784;2023-07-02T03:59:57;13.50;99.90
59301;DHT22;45073;52.740;6.784;2023-07-02T04:02:23;13.50;99.90
59301;DHT22;45073;52.740;6.784;2023-07-02T04:04:48;13.50;99.90
59301;DHT22;45073;52.740;6.784;2023-07-02T04:07:14;13.50;99.90
59301;DHT22;45073;52.740;6.784;2023-07-02T04:09:40;13.40;99.90
59301;DHT22;45073;52.740;6.784;2023-07-02T04:12:06;13.40;99.90
59301;DHT22;45073;52.740;6.784;2023-07-02T04:14:32;13.40;99.90
59301;DHT22;45073;52.740;6.784;2023-07-02T04:16:57;13.40;99.90
59301;DHT22;45073;52.740;6.784;2023-07-02T04:19:23;13.30;99.90
59301;DHT22;45073;52.740;6.784;2023-07-02T04:21:49;13.40;99.90
59301;DHT22;45073;52.740;6.784;2023-07-02T04:24:14;13.40;99.90
59301;DHT22;45073;52.740;6.784;2023-07-02T04:26:40;13.40;99.90
59301;DHT22;45073;52.740;6.784;2023-07-02T04:29:09;13.50;99.90
59301;DHT22;45073;52.740;6.784;2023-07-02T04:31:35;13.60;99.90
59301;DHT22;45073;52.740;6.784;2023-07-02T04:34:01;13.60;99.90
59301;DHT22;45073;52.740;6.784;2023-07-02T04:36:26;13.70;99.90
59301;DHT22;45073;52.740;6.784;2023-07-02T04:38:53;13.80;99.90
59301;DHT22;45073;52.740;6.784;2023-07-02T04:41:19;13.80;99.90
59301;DHT22;45073;52.740;6.784;2023-07-02T04:43:45;13.80;99.90
59301;DHT22;45073;52.740;6.784;2023-07-02T04:46:11;13.80;99.90
59301;DHT22;45073;52.740;6.784;2023-07-02T04:48:38;13.80;99.90
59301;DHT22;45073;52.740;6.784;2023-07-02T04:51:04;13.90;99.90
59301;DHT22;45073;52.740;6.784;2023-07-02T04:53:29;14.00;99.90
59301;DHT22;45073;52.740;6.784;2023-07-02T04:55:55;14.00;99.90
59301;DHT22;45073;52.740;6.784;2023-07-02T04:58:23;14.10;99.90
59301;DHT22;45073;52.740;6.784;2023-07-02T05:00:48;14.10;99.90
59301;DHT22;45073;52.740;6.784;2023-07-02T05:03:14;14.10;99.90
59301;DHT22;45073;52.740;6.784;2023-07-02T05:05:40;14.10;99.90
59301;DHT22;45073;52.740;6.784;2023-07-02T05:08:05;14.10;99.90
59301;DHT22;45073;52.740;6.784;2023-07-02T05:10:32;14.10;99.90
59301;DHT22;45073;52.740;6.784;2023-07-02T05:12:57;14.30;99.90
59301;DHT22;45073;52.740;6.784;2023-07-02T05:15:24;14.30;99.90
59301;DHT22;45073;52.740;6.784;2023-07-02T05:17:49;14.30;99.90
59301;DHT22;45073;52.740;6.784;2023-07-02T05:20:15;14.40;99.90
59301;DHT22;45073;52.740;6.784;2023-07-02T05:22:41;14.50;99.90
59301;DHT22;45073;52.740;6.784;2023-07-02T05:25:06;14.60;99.90
59301;DHT22;45073;52.740;6.784;2023-07-02T05:27:32;14.60;99.90
59301;DHT22;45073;52.740;6.784;2023-07-02T05:29:58;14.70;99.90
59301;DHT22;45073;52.740;6.784;2023-07-02T05:32:23;14.90;99.90
59301;DHT22;45073;52.740;6.784;2023-07-02T05:34:49;14.90;99.90
59301;DHT22;45073;52.740;6.784;2023-07-02T05:37:14;15.00;99.90
59301;DHT22;45073;52.740;6.784;2023-07-02T05:39:40;15.00;99.90
59301;DHT22;45073;52.740;6.784;2023-07-02T05:42:06;15.10;99.90
59301;DHT22;45073;52.740;6.784;2023-07-02T05:44:31;15.10;99.90
59301;DHT22;45073;52.740;6.784;2023-07-02T05:46:57;15.20;99.90
59301;DHT22;45073;52.740;6.784;2023-07-02T05:49:23;15.30;99.90
59301;DHT22;45073;52.740;6.784;2023-07-02T05:51:48;15.30;99.90
59301;DHT22;45073;52.740;6.784;2023-07-02T05:54:14;15.40;99.90
59301;DHT22;45073;52.740;6.784;2023-07-02T05:56:40;15.40;99.90
59301;DHT22;45073;52.740;6.784;2023-07-02T05:59:05;15.50;99.90
59301;DHT22;45073;52.740;6.784;2023-07-02T06:01:31;15.50;99.90
59301;DHT22;45073;52.740;6.784;2023-07-02T06:03:56;15.70;99.90
59301;DHT22;45073;52.740;6.784;2023-07-02T06:06:22;15.70;99.90
59301;DHT22;45073;52.740;6.784;2023-07-02T06:08:50;15.70;99.90
59301;DHT22;45073;52.740;6.784;2023-07-02T06:11:15;15.80;99.90
59301;DHT22;45073;52.740;6.784;2023-07-02T06:13:41;15.90;99.90
59301;DHT22;45073;52.740;6.784;2023-07-02T06:16:07;15.90;99.90
59301;DHT22;45073;52.740;6.784;2023-07-02T06:18:32;16.00;99.90
59301;DHT22;45073;52.740;6.784;2023-07-02T06:20:58;16.10;99.90
59301;DHT22;45073;52.740;6.784;2023-07-02T06:23:23;16.10;99.90
59301;DHT22;45073;52.740;6.784;2023-07-02T06:25:49;16.20;99.90
59301;DHT22;45073;52.740;6.784;2023-07-02T06:28:18;16.30;99.90
59301;DHT22;45073;52.740;6.784;2023-07-02T06:30:44;16.40;99.90
59301;DHT22;45073;52.740;6.784;2023-07-02T06:33:10;16.40;99.90
59301;DHT22;45073;52.740;6.784;2023-07-02T06:35:35;16.50;99.90
59301;DHT22;45073;52.740;6.784;2023-07-02T06:38:01;16.60;99.90
59301;DHT22;45073;52.740;6.784;2023-07-02T06:40:27;16.70;99.90
59301;DHT22;45073;52.740;6.784;2023-07-02T06:42:52;16.70;99.90
59301;DHT22;45073;52.740;6.784;2023-07-02T06:45:18;16.70;99.90
59301;DHT22;45073;52.740;6.784;2023-07-02T06:47:44;16.80;99.90
59301;DHT22;45073;52.740;6.784;2023-07-02T06:50:09;16.80;99.90
59301;DHT22;45073;52.740;6.784;2023-07-02T06:52:36;16.90;99.90
59301;DHT22;45073;52.740;6.784;2023-07-02T06:55:03;16.90;99.90
59301;DHT22;45073;52.740;6.784;2023-07-02T06:57:28;17.00;99.90
59301;DHT22;45073;52.740;6.784;2023-07-02T07:00:00;17.00;99.90
59301;DHT22;45073;52.740;6.784;2023-07-02T07:02:29;16.90;99.90
59301;DHT22;45073;52.740;6.784;2023-07-02T07:04:54;17.00;99.90
59301;DHT22;45073;52.740;6.784;2023-07-02T07:07:20;17.10;99.90
59301;DHT22;45073;52.740;6.784;2023-07-02T07:09:45;17.10;99.90
59301;DHT22;45073;52.740;6.784;2023-07-02T07:12:11;17.20;99.90
59301;DHT22;45073;52.740;6.784;2023-07-02T07:14:37;17.30;99.90
59301;DHT22;45073;52.740;6.784;2023-07-02T07:17:02;17.30;99.90
59301;DHT22;45073;52.740;6.784;2023-07-02T07:19:28;17.30;99.90
59301;DHT22;45073;52.740;6.784;2023-07-02T07:21:53;17.40;99.90
59301;DHT22;45073;52.740;6.784;2023-07-02T07:24:19;17.50;99.90
59301;DHT22;45073;52.740;6.784;2023-07-02T07:26:45;17.60;99.90
59301;DHT22;45073;52.740;6.784;2023-07-02T07:29:11;17.70;99.90
59301;DHT22;45073;52.740;6.784;2023-07-02T07:31:37;17.80;99.90
59301;DHT22;45073;52.740;6.784;2023-07-02T07:34:03;17.80;99.90
59301;DHT22;45073;52.740;6.784;2023-07-02T07:36:28;17.90;99.90
59301;DHT22;45073;52.740;6.784;2023-07-02T07:38:54;17.90;99.90
59301;DHT22;45073;52.740;6.784;2023-07-02T07:41:20;17.90;99.90
59301;DHT22;45073;52.740;6.784;2023-07-02T07:43:45;17.80;99.90
59301;DHT22;45073;52.740;6.784;2023-07-02T07:46:11;17.70;99.90
59301;DHT22;45073;52.740;6.784;2023-07-02T07:48:36;17.60;99.90
59301;DHT22;45073;52.740;6.784;2023-07-02T07:51:02;17.50;99.90
59301;DHT22;45073;52.740;6.784;2023-07-02T07:53:28;17.40;99.90
59301;DHT22;45073;52.740;6.784;2023-07-02T07:55:54;17.30;99.90
59301;DHT22;45073;52.740;6.784;2023-07-02T07:58:19;17.30;99.90
59301;DHT22;45073;52.740;6.784;2023-07-02T08:00:45;17.40;99.90
59301;DHT22;45073;52.740;6.784;2023-07-02T08:03:10;17.50;99.90
59301;DHT22;45073;52.740;6.784;2023-07-02T08:05:36;17.60;99.90
59301;DHT22;45073;52.740;6.784;2023-07-02T08:08:02;17.70;99.90
59301;DHT22;45073;52.740;6.784;2023-07-02T08:10:27;17.80;99.90
59301;DHT22;45073;52.740;6.784;2023-07-02T08:12:53;17.90;99.90
59301;DHT22;45073;52.740;6.784;2023-07-02T08:15:19;17.90;99.90
59301;DHT22;45073;52.740;6.784;2023-07-02T08:17:44;18.00;99.90
59301;DHT22;45073;52.740;6.784;2023-07-02T08:20:11;18.10;99.90
59301;DHT22;45073;52.740;6.784;2023-07-02T08:22:38;18.20;99.90
59301;DHT22;45073;52.740;6.784;2023-07-02T08:25:04;18.10;97.50
59301;DHT22;45073;52.740;6.784;2023-07-02T08:27:30;18.10;97.20
59301;DHT22;45073;52.740;6.784;2023-07-02T08:29:56;18.20;97.00
59301;DHT22;45073;52.740;6.784;2023-07-02T08:32:21;18.30;98.90
59301;DHT22;45073;52.740;6.784;2023-07-02T08:34:47;18.40;98.30
59301;DHT22;45073;52.740;6.784;2023-07-02T08:37:13;18.40;95.80
59301;DHT22;45073;52.740;6.784;2023-07-02T08:39:39;18.50;96.30
59301;DHT22;45073;52.740;6.784;2023-07-02T08:42:05;18.40;92.30
59301;DHT22;45073;52.740;6.784;2023-07-02T08:44:31;18.20;91.20
59301;DHT22;45073;52.740;6.784;2023-07-02T08:46:58;18.30;91.10
59301;DHT22;45073;52.740;6.784;2023-07-02T08:49:23;18.50;91.50
59301;DHT22;45073;52.740;6.784;2023-07-02T08:51:49;18.50;91.10
59301;DHT22;45073;52.740;6.784;2023-07-02T08:54:17;18.40;90.70
59301;DHT22;45073;52.740;6.784;2023-07-02T08:56:44;18.50;91.00
59301;DHT22;45073;52.740;6.784;2023-07-02T08:59:11;18.40;90.10
59301;DHT22;45073;52.740;6.784;2023-07-02T09:01:47;18.40;90.20
59301;DHT22;45073;52.740;6.784;2023-07-02T09:04:31;18.30;90.10
59301;DHT22;45073;52.740;6.784;2023-07-02T09:07:04;18.40;91.00
59301;DHT22;45073;52.740;6.784;2023-07-02T09:09:30;18.40;90.80
59301;DHT22;45073;52.740;6.784;2023-07-02T09:11:56;18.40;90.70
59301;DHT22;45073;52.740;6.784;2023-07-02T09:14:31;18.30;86.70
59301;DHT22;45073;52.740;6.784;2023-07-02T09:17:07;18.20;86.00
59301;DHT22;45073;52.740;6.784;2023-07-02T09:19:47;18.10;85.90
59301;DHT22;45073;52.740;6.784;2023-07-02T09:22:14;18.00;85.40
59301;DHT22;45073;52.740;6.784;2023-07-02T09:24:41;18.10;87.70
59301;DHT22;45073;52.740;6.784;2023-07-02T09:27:06;18.20;89.30
59301;DHT22;45073;52.740;6.784;2023-07-02T09:29:33;18.30;88.90
59301;DHT22;45073;52.740;6.784;2023-07-02T09:32:01;18.30;87.90
59301;DHT22;45073;52.740;6.784;2023-07-02T09:34:31;18.30;88.60
59301;DHT22;45073;52.740;6.784;2023-07-02T09:36:58;18.00;88.10
59301;DHT22;45073;52.740;6.784;2023-07-02T09:39:31;18.00;89.90
59301;DHT22;45073;52.740;6.784;2023-07-02T09:41:59;17.90;90.70
59301;DHT22;45073;52.740;6.784;2023-07-02T09:44:30;17.90;91.70
59301;DHT22;45073;52.740;6.784;2023-07-02T09:47:07;18.00;92.20
59301;DHT22;45073;52.740;6.784;2023-07-02T09:49:54;18.00;92.60
59301;DHT22;45073;52.740;6.784;2023-07-02T09:52:21;18.00;92.70
59301;DHT22;45073;52.740;6.784;2023-07-02T09:54:47;18.00;93.50
59301;DHT22;45073;52.740;6.784;2023-07-02T09:57:13;17.90;93.30
59301;DHT22;45073;52.740;6.784;2023-07-02T09:59:40;18.10;94.30
59301;DHT22;45073;52.740;6.784;2023-07-02T10:02:05;18.10;94.10
59301;DHT22;45073;52.740;6.784;2023-07-02T10:04:45;18.20;93.40
59301;DHT22;45073;52.740;6.784;2023-07-02T10:07:12;18.40;94.10
59301;DHT22;45073;52.740;6.784;2023-07-02T10:09:45;18.40;91.70
59301;DHT22;45073;52.740;6.784;2023-07-02T10:12:16;18.50;93.00
59301;DHT22;45073;52.740;6.784;2023-07-02T10:14:42;18.50;92.30
59301;DHT22;45073;52.740;6.784;2023-07-02T10:17:09;18.60;91.90
59301;DHT22;45073;52.740;6.784;2023-07-02T10:19:35;18.50;90.00
59301;DHT22;45073;52.740;6.784;2023-07-02T10:22:04;18.40;90.10
59301;DHT22;45073;52.740;6.784;2023-07-02T10:24:30;18.40;90.60
59301;DHT22;45073;52.740;6.784;2023-07-02T10:27:00;18.30;91.80
59301;DHT22;45073;52.740;6.784;2023-07-02T10:29:28;18.30;91.90
59301;DHT22;45073;52.740;6.784;2023-07-02T10:31:55;18.20;92.80
59301;DHT22;45073;52.740;6.784;2023-07-02T10:36:56;18.00;92.40
59301;DHT22;45073;52.740;6.784;2023-07-02T10:39:22;17.90;94.20
59301;DHT22;45073;52.740;6.784;2023-07-02T10:41:47;17.80;96.20
59301;DHT22;45073;52.740;6.784;2023-07-02T10:44:13;17.70;98.70
59301;DHT22;45073;52.740;6.784;2023-07-02T10:46:46;17.80;99.90
59301;DHT22;45073;52.740;6.784;2023-07-02T10:49:12;17.90;99.90
59301;DHT22;45073;52.740;6.784;2023-07-02T10:51:38;17.90;99.90
59301;DHT22;45073;52.740;6.784;2023-07-02T10:54:04;18.00;99.90
59301;DHT22;45073;52.740;6.784;2023-07-02T10:56:31;18.10;99.90
59301;DHT22;45073;52.740;6.784;2023-07-02T10:58:57;18.20;99.90
59301;DHT22;45073;52.740;6.784;2023-07-02T11:01:28;18.50;99.90
59301;DHT22;45073;52.740;6.784;2023-07-02T11:04:04;18.70;99.90
59301;DHT22;45073;52.740;6.784;2023-07-02T11:06:31;18.80;98.50
59301;DHT22;45073;52.740;6.784;2023-07-02T11:09:00;18.70;99.00
59301;DHT22;45073;52.740;6.784;2023-07-02T11:11:26;18.80;99.40
59301;DHT22;45073;52.740;6.784;2023-07-02T11:13:52;18.80;98.30
59301;DHT22;45073;52.740;6.784;2023-07-02T11:16:23;18.80;97.40
59301;DHT22;45073;52.740;6.784;2023-07-02T11:18:54;18.80;99.00
59301;DHT22;45073;52.740;6.784;2023-07-02T11:21:20;18.80;98.60
59301;DHT22;45073;52.740;6.784;2023-07-02T11:23:46;18.70;98.70
59301;DHT22;45073;52.740;6.784;2023-07-02T11:26:11;18.70;97.80
59301;DHT22;45073;52.740;6.784;2023-07-02T11:28:48;18.70;96.50
59301;DHT22;45073;52.740;6.784;2023-07-02T11:31:24;18.80;96.70
59301;DHT22;45073;52.740;6.784;2023-07-02T11:33:50;18.80;93.10
59301;DHT22;45073;52.740;6.784;2023-07-02T11:36:21;18.80;92.30
59301;DHT22;45073;52.740;6.784;2023-07-02T11:38:48;18.80;89.20
59301;DHT22;45073;52.740;6.784;2023-07-02T11:41:14;18.70;84.60
59301;DHT22;45073;52.740;6.784;2023-07-02T11:43:39;18.70;82.80
59301;DHT22;45073;52.740;6.784;2023-07-02T11:46:05;18.60;82.00
59301;DHT22;45073;52.740;6.784;2023-07-02T11:48:30;18.60;79.20
59301;DHT22;45073;52.740;6.784;2023-07-02T11:50:56;18.60;77.50
59301;DHT22;45073;52.740;6.784;2023-07-02T11:53:21;18.60;79.60
59301;DHT22;45073;52.740;6.784;2023-07-02T11:55:47;18.80;77.10
59301;DHT22;45073;52.740;6.784;2023-07-02T11:58:13;18.90;76.20
59301;DHT22;45073;52.740;6.784;2023-07-02T12:00:38;19.00;76.80
59301;DHT22;45073;52.740;6.784;2023-07-02T12:03:04;19.00;75.50
59301;DHT22;45073;52.740;6.784;2023-07-02T12:05:29;19.10;75.10
59301;DHT22;45073;52.740;6.784;2023-07-02T12:07:55;19.10;77.50
59301;DHT22;45073;52.740;6.784;2023-07-02T12:10:21;19.10;76.70
59301;DHT22;45073;52.740;6.784;2023-07-02T12:12:46;19.00;76.30
59301;DHT22;45073;52.740;6.784;2023-07-02T12:15:12;19.00;76.80
59301;DHT22;45073;52.740;6.784;2023-07-02T12:17:37;18.90;76.20
59301;DHT22;45073;52.740;6.784;2023-07-02T12:20:03;19.00;77.10
59301;DHT22;45073;52.740;6.784;2023-07-02T12:22:29;19.00;76.70
59301;DHT22;45073;52.740;6.784;2023-07-02T12:24:55;19.10;79.10
59301;DHT22;45073;52.740;6.784;2023-07-02T12:27:22;19.40;78.90
59301;DHT22;45073;52.740;6.784;2023-07-02T12:29:48;19.50;77.80
59301;DHT22;45073;52.740;6.784;2023-07-02T12:32:14;19.50;75.90
59301;DHT22;45073;52.740;6.784;2023-07-02T12:34:40;19.50;75.30
59301;DHT22;45073;52.740;6.784;2023-07-02T12:37:05;19.40;74.40
59301;DHT22;45073;52.740;6.784;2023-07-02T12:39:31;19.40;75.10
59301;DHT22;45073;52.740;6.784;2023-07-02T12:41:56;19.40;75.40
59301;DHT22;45073;52.740;6.784;2023-07-02T12:44:22;19.30;75.90
59301;DHT22;45073;52.740;6.784;2023-07-02T12:46:48;19.20;75.40
59301;DHT22;45073;52.740;6.784;2023-07-02T12:49:13;19.20;75.50
59301;DHT22;45073;52.740;6.784;2023-07-02T12:51:39;19.00;74.80
59301;DHT22;45073;52.740;6.784;2023-07-02T12:54:05;19.00;74.30
59301;DHT22;45073;52.740;6.784;2023-07-02T12:56:30;19.00;74.20
59301;DHT22;45073;52.740;6.784;2023-07-02T12:58:56;19.20;73.00
59301;DHT22;45073;52.740;6.784;2023-07-02T13:01:22;19.30;72.70
59301;DHT22;45073;52.740;6.784;2023-07-02T13:03:49;19.30;70.80
59301;DHT22;45073;52.740;6.784;2023-07-02T13:06:15;19.30;70.20
59301;DHT22;45073;52.740;6.784;2023-07-02T13:08:41;19.30;70.10
59301;DHT22;45073;52.740;6.784;2023-07-02T13:11:07;19.30;71.10
59301;DHT22;45073;52.740;6.784;2023-07-02T13:13:35;19.60;71.40
59301;DHT22;45073;52.740;6.784;2023-07-02T13:16:02;19.70;69.20
59301;DHT22;45073;52.740;6.784;2023-07-02T13:18:27;19.80;71.60
59301;DHT22;45073;52.740;6.784;2023-07-02T13:20:53;19.80;71.70
59301;DHT22;45073;52.740;6.784;2023-07-02T13:23:19;19.80;70.20
59301;DHT22;45073;52.740;6.784;2023-07-02T13:25:44;19.70;70.20
59301;DHT22;45073;52.740;6.784;2023-07-02T13:28:10;19.70;70.10
59301;DHT22;45073;52.740;6.784;2023-07-02T13:30:36;19.80;71.30
59301;DHT22;45073;52.740;6.784;2023-07-02T13:33:01;20.10;70.70
59301;DHT22;45073;52.740;6.784;2023-07-02T13:35:27;20.10;70.20
59301;DHT22;45073;52.740;6.784;2023-07-02T13:37:53;20.30;69.60
59301;DHT22;45073;52.740;6.784;2023-07-02T13:40:18;20.10;68.20
59301;DHT22;45073;52.740;6.784;2023-07-02T13:42:44;19.90;66.80
59301;DHT22;45073;52.740;6.784;2023-07-02T13:45:10;19.70;65.60
59301;DHT22;45073;52.740;6.784;2023-07-02T13:47:36;19.60;66.80
59301;DHT22;45073;52.740;6.784;2023-07-02T13:50:02;19.70;68.10
59301;DHT22;45073;52.740;6.784;2023-07-02T13:52:29;19.80;68.30
59301;DHT22;45073;52.740;6.784;2023-07-02T13:54:55;19.80;67.30
59301;DHT22;45073;52.740;6.784;2023-07-02T13:57:20;19.90;65.90
59301;DHT22;45073;52.740;6.784;2023-07-02T13:59:46;19.90;65.60
59301;DHT22;45073;52.740;6.784;2023-07-02T14:02:11;19.90;65.50
59301;DHT22;45073;52.740;6.784;2023-07-02T14:04:37;20.00;66.40
59301;DHT22;45073;52.740;6.784;2023-07-02T14:07:03;19.90;65.70
59301;DHT22;45073;52.740;6.784;2023-07-02T14:09:29;19.90;65.60
59301;DHT22;45073;52.740;6.784;2023-07-02T14:11:55;19.90;65.70
59301;DHT22;45073;52.740;6.784;2023-07-02T14:14:21;20.10;66.50
59301;DHT22;45073;52.740;6.784;2023-07-02T14:16:46;20.30;65.90
59301;DHT22;45073;52.740;6.784;2023-07-02T14:19:12;20.30;64.50
59301;DHT22;45073;52.740;6.784;2023-07-02T14:21:38;20.10;64.30
59301;DHT22;45073;52.740;6.784;2023-07-02T14:24:04;19.90;65.80
59301;DHT22;45073;52.740;6.784;2023-07-02T14:26:30;19.80;66.30
59301;DHT22;45073;52.740;6.784;2023-07-02T14:28:56;19.70;66.80
59301;DHT22;45073;52.740;6.784;2023-07-02T14:31:21;19.60;67.00
59301;DHT22;45073;52.740;6.784;2023-07-02T14:33:47;19.70;68.30
59301;DHT22;45073;52.740;6.784;2023-07-02T14:36:13;19.80;69.30
59301;DHT22;45073;52.740;6.784;2023-07-02T14:38:39;19.90;68.30
59301;DHT22;45073;52.740;6.784;2023-07-02T14:41:04;20.00;68.90
59301;DHT22;45073;52.740;6.784;2023-07-02T14:43:30;20.10;69.80
59301;DHT22;45073;52.740;6.784;2023-07-02T14:45:59;20.20;68.50
59301;DHT22;45073;52.740;6.784;2023-07-02T14:48:25;20.00;67.50
59301;DHT22;45073;52.740;6.784;2023-07-02T14:50:56;19.80;67.80
59301;DHT22;45073;52.740;6.784;2023-07-02T14:53:22;19.70;67.90
59301;DHT22;45073;52.740;6.784;2023-07-02T14:55:48;19.70;69.30
59301;DHT22;45073;52.740;6.784;2023-07-02T14:58:15;19.70;67.10
59301;DHT22;45073;52.740;6.784;2023-07-02T15:00:50;19.70;67.90
59301;DHT22;45073;52.740;6.784;2023-07-02T15:03:17;19.60;66.10
59301;DHT22;45073;52.740;6.784;2023-07-02T15:05:43;19.70;67.80
59301;DHT22;45073;52.740;6.784;2023-07-02T15:08:09;19.90;67.90
59301;DHT22;45073;52.740;6.784;2023-07-02T15:10:37;20.00;67.50
59301;DHT22;45073;52.740;6.784;2023-07-02T15:13:05;19.90;67.50
59301;DHT22;45073;52.740;6.784;2023-07-02T15:15:31;20.00;68.10
59301;DHT22;45073;52.740;6.784;2023-07-02T15:17:56;20.10;67.40
59301;DHT22;45073;52.740;6.784;2023-07-02T15:20:22;20.20;67.80
59301;DHT22;45073;52.740;6.784;2023-07-02T15:22:48;20.20;66.20
59301;DHT22;45073;52.740;6.784;2023-07-02T15:25:13;20.20;65.90
59301;DHT22;45073;52.740;6.784;2023-07-02T15:27:39;20.00;65.70
59301;DHT22;45073;52.740;6.784;2023-07-02T15:30:05;19.90;65.90